sensor_id;sensor_type;location;lat;lon;timestamp;P1;durP1;ratioP1;P2;durP2;ratioP2
74503;SDS011;62988;55.776;37.544;2022-09-29T00:00:10;6.22;;;3.47;;
74503;SDS011;62988;55.776;37.544;2022-09-29T00:02:36;14.95;;;4.05;;
74503;SDS011;62988;55.776;37.544;2022-09-29T00:05:02;6.00;;;3.63;;
74503;SDS011;62988;55.776;37.544;2022-09-29T00:07:28;8.43;;;3.70;;
74503;SDS011;62988;55.776;37.544;2022-09-29T00:09:53;7.43;;;3.42;;
74503;SDS011;62988;55.776;37.544;2022-09-29T00:12:19;8.30;;;3.50;;
74503;SDS011;62988;55.776;37.544;2022-09-29T00:14:44;5.57;;;3.72;;
74503;SDS011;62988;55.776;37.544;2022-09-29T00:17:10;7.18;;;4.00;;
74503;SDS011;62988;55.776;37.544;2022-09-29T00:19:35;7.68;;;4.03;;
74503;SDS011;62988;55.776;37.544;2022-09-29T00:22:01;7.72;;;4.03;;
74503;SDS011;62988;55.776;37.544;2022-09-29T00:24:26;7.63;;;3.95;;
74503;SDS011;62988;55.776;37.544;2022-09-29T00:26:53;8.20;;;4.15;;
74503;SDS011;62988;55.776;37.544;2022-09-29T00:29:18;6.18;;;3.58;;
74503;SDS011;62988;55.776;37.544;2022-09-29T00:31:44;6.28;;;3.90;;
74503;SDS011;62988;55.776;37.544;2022-09-29T00:34:09;6.85;;;3.40;;
74503;SDS011;62988;55.776;37.544;2022-09-29T00:36:35;6.20;;;3.45;;
74503;SDS011;62988;55.776;37.544;2022-09-29T00:39:02;7.57;;;3.70;;
74503;SDS011;62988;55.776;37.544;2022-09-29T00:41:29;6.03;;;3.10;;
74503;SDS011;62988;55.776;37.544;2022-09-29T00:46:48;4.97;;;3.20;;
74503;SDS011;62988;55.776;37.544;2022-09-29T00:52:11;6.30;;;4.10;;
74503;SDS011;62988;55.776;37.544;2022-09-29T00:54:39;6.85;;;3.88;;
74503;SDS011;62988;55.776;37.544;2022-09-29T00:57:09;5.10;;;3.30;;
74503;SDS011;62988;55.776;37.544;2022-09-29T00:59:41;7.00;;;3.63;;
74503;SDS011;62988;55.776;37.544;2022-09-29T01:02:14;10.30;;;4.05;;
74503;SDS011;62988;55.776;37.544;2022-09-29T01:04:41;8.80;;;4.15;;
74503;SDS011;62988;55.776;37.544;2022-09-29T01:07:07;11.98;;;3.78;;
74503;SDS011;62988;55.776;37.544;2022-09-29T01:09:35;6.82;;;4.20;;
74503;SDS011;62988;55.776;37.544;2022-09-29T01:12:03;7.05;;;3.85;;
74503;SDS011;62988;55.776;37.544;2022-09-29T01:14:29;9.25;;;4.25;;
74503;SDS011;62988;55.776;37.544;2022-09-29T01:16:57;8.65;;;4.05;;
74503;SDS011;62988;55.776;37.544;2022-09-29T01:19:36;7.82;;;4.28;;
74503;SDS011;62988;55.776;37.544;2022-09-29T01:35:51;13.27;;;6.57;;
74503;SDS011;62988;55.776;37.544;2022-09-29T01:41:30;12.65;;;6.68;;
74503;SDS011;62988;55.776;37.544;2022-09-29T01:44:04;11.00;;;5.53;;
74503;SDS011;62988;55.776;37.544;2022-09-29T01:46:39;12.25;;;6.32;;
74503;SDS011;62988;55.776;37.544;2022-09-29T01:49:17;15.35;;;5.70;;
74503;SDS011;62988;55.776;37.544;2022-09-29T01:51:49;11.88;;;5.93;;
74503;SDS011;62988;55.776;37.544;2022-09-29T01:54:18;9.90;;;5.47;;
74503;SDS011;62988;55.776;37.544;2022-09-29T01:56:55;11.60;;;4.80;;
74503;SDS011;62988;55.776;37.544;2022-09-29T01:59:29;15.23;;;4.85;;
74503;SDS011;62988;55.776;37.544;2022-09-29T02:02:11;8.15;;;4.13;;
74503;SDS011;62988;55.776;37.544;2022-09-29T02:04:44;8.35;;;4.57;;
74503;SDS011;62988;55.776;37.544;2022-09-29T02:07:26;11.43;;;4.00;;
74503;SDS011;62988;55.776;37.544;2022-09-29T02:10:00;6.15;;;3.80;;
74503;SDS011;62988;55.776;37.544;2022-09-29T02:12:29;9.32;;;3.95;;
74503;SDS011;62988;55.776;37.544;2022-09-29T02:14:58;6.25;;;3.30;;
74503;SDS011;62988;55.776;37.544;2022-09-29T02:17:31;7.68;;;3.50;;
74503;SDS011;62988;55.776;37.544;2022-09-29T02:20:00;7.53;;;3.28;;
74503;SDS011;62988;55.776;37.544;2022-09-29T02:22:26;6.25;;;3.15;;
74503;SDS011;62988;55.776;37.544;2022-09-29T02:24:53;6.55;;;3.15;;
74503;SDS011;62988;55.776;37.544;2022-09-29T02:27:23;9.35;;;3.22;;
74503;SDS011;62988;55.776;37.544;2022-09-29T02:29:50;8.88;;;3.42;;
74503;SDS011;62988;55.776;37.544;2022-09-29T02:32:16;7.20;;;3.15;;
74503;SDS011;62988;55.776;37.544;2022-09-29T02:34:44;6.18;;;3.22;;
74503;SDS011;62988;55.776;37.544;2022-09-29T02:56:12;7.97;;;3.50;;
74503;SDS011;62988;55.776;37.544;2022-09-29T02:58:59;11.18;;;2.88;;
74503;SDS011;62988;55.776;37.544;2022-09-29T03:01:32;7.80;;;3.40;;
74503;SDS011;62988;55.776;37.544;2022-09-29T03:03:58;7.75;;;3.03;;
74503;SDS011;62988;55.776;37.544;2022-09-29T03:06:25;6.50;;;3.28;;
74503;SDS011;62988;55.776;37.544;2022-09-29T03:08:51;10.20;;;3.38;;
74503;SDS011;62988;55.776;37.544;2022-09-29T03:11:17;7.00;;;3.53;;
74503;SDS011;62988;55.776;37.544;2022-09-29T03:13:43;6.15;;;3.47;;
74503;SDS011;62988;55.776;37.544;2022-09-29T03:16:08;9.00;;;3.40;;
74503;SDS011;62988;55.776;37.544;2022-09-29T03:18:34;5.55;;;3.03;;
74503;SDS011;62988;55.776;37.544;2022-09-29T03:20:59;6.57;;;3.10;;
74503;SDS011;62988;55.776;37.544;2022-09-29T03:23:25;6.32;;;3.40;;
74503;SDS011;62988;55.776;37.544;2022-09-29T03:25:50;8.98;;;3.53;;
74503;SDS011;62988;55.776;37.544;2022-09-29T03:28:16;5.55;;;3.20;;
74503;SDS011;62988;55.776;37.544;2022-09-29T03:30:42;6.03;;;3.20;;
74503;SDS011;62988;55.776;37.544;2022-09-29T03:33:09;6.25;;;2.78;;
74503;SDS011;62988;55.776;37.544;2022-09-29T03:35:35;6.10;;;3.40;;
74503;SDS011;62988;55.776;37.544;2022-09-29T03:38:00;8.40;;;3.03;;
74503;SDS011;62988;55.776;37.544;2022-09-29T03:40:26;7.30;;;3.58;;
74503;SDS011;62988;55.776;37.544;2022-09-29T03:42:52;5.97;;;3.35;;
74503;SDS011;62988;55.776;37.544;2022-09-29T03:45:18;7.22;;;3.42;;
74503;SDS011;62988;55.776;37.544;2022-09-29T03:47:44;6.03;;;3.25;;
74503;SDS011;62988;55.776;37.544;2022-09-29T03:50:09;8.75;;;3.28;;
74503;SDS011;62988;55.776;37.544;2022-09-29T03:52:35;7.50;;;3.35;;
74503;SDS011;62988;55.776;37.544;2022-09-29T03:55:01;6.85;;;3.40;;
74503;SDS011;62988;55.776;37.544;2022-09-29T03:57:27;7.50;;;3.33;;
74503;SDS011;62988;55.776;37.544;2022-09-29T03:59:52;11.50;;;2.97;;
74503;SDS011;62988;55.776;37.544;2022-09-29T04:02:18;7.88;;;2.65;;
74503;SDS011;62988;55.776;37.544;2022-09-29T04:04:44;8.70;;;3.17;;
74503;SDS011;62988;55.776;37.544;2022-09-29T04:07:10;5.60;;;3.03;;
74503;SDS011;62988;55.776;37.544;2022-09-29T04:09:36;5.47;;;2.60;;
74503;SDS011;62988;55.776;37.544;2022-09-29T04:12:02;6.78;;;2.83;;
74503;SDS011;62988;55.776;37.544;2022-09-29T04:14:28;5.32;;;2.83;;
74503;SDS011;62988;55.776;37.544;2022-09-29T04:16:53;6.72;;;2.92;;
74503;SDS011;62988;55.776;37.544;2022-09-29T04:19:18;9.00;;;3.28;;
74503;SDS011;62988;55.776;37.544;2022-09-29T04:21:44;4.90;;;2.88;;
74503;SDS011;62988;55.776;37.544;2022-09-29T04:24:10;8.35;;;4.32;;
74503;SDS011;62988;55.776;37.544;2022-09-29T04:26:35;8.60;;;3.47;;
74503;SDS011;62988;55.776;37.544;2022-09-29T04:29:01;6.72;;;3.30;;
74503;SDS011;62988;55.776;37.544;2022-09-29T04:31:27;5.30;;;3.08;;
74503;SDS011;62988;55.776;37.544;2022-09-29T04:33:52;7.10;;;2.40;;
74503;SDS011;62988;55.776;37.544;2022-09-29T04:36:18;9.15;;;2.30;;
74503;SDS011;62988;55.776;37.544;2022-09-29T04:38:44;5.25;;;2.35;;
74503;SDS011;62988;55.776;37.544;2022-09-29T04:41:09;5.68;;;2.38;;
74503;SDS011;62988;55.776;37.544;2022-09-29T04:43:34;5.38;;;2.13;;
74503;SDS011;62988;55.776;37.544;2022-09-29T04:46:01;3.97;;;2.40;;
74503;SDS011;62988;55.776;37.544;2022-09-29T04:48:27;4.07;;;2.22;;
74503;SDS011;62988;55.776;37.544;2022-09-29T04:50:53;4.30;;;2.33;;
74503;SDS011;62988;55.776;37.544;2022-09-29T04:53:19;5.75;;;2.40;;
74503;SDS011;62988;55.776;37.544;2022-09-29T04:55:44;4.18;;;2.03;;
74503;SDS011;62988;55.776;37.544;2022-09-29T04:58:10;4.15;;;2.58;;
74503;SDS011;62988;55.776;37.544;2022-09-29T05:00:35;7.45;;;3.10;;
74503;SDS011;62988;55.776;37.544;2022-09-29T05:03:01;6.32;;;2.88;;
74503;SDS011;62988;55.776;37.544;2022-09-29T05:05:27;5.60;;;2.30;;
74503;SDS011;62988;55.776;37.544;2022-09-29T05:07:53;6.30;;;3.30;;
74503;SDS011;62988;55.776;37.544;2022-09-29T05:10:18;6.00;;;2.55;;
74503;SDS011;62988;55.776;37.544;2022-09-29T05:12:48;6.50;;;2.72;;
74503;SDS011;62988;55.776;37.544;2022-09-29T05:15:14;4.72;;;3.00;;
74503;SDS011;62988;55.776;37.544;2022-09-29T05:17:41;5.97;;;2.97;;
74503;SDS011;62988;55.776;37.544;2022-09-29T05:20:07;4.88;;;2.72;;
74503;SDS011;62988;55.776;37.544;2022-09-29T05:22:33;5.45;;;2.60;;
74503;SDS011;62988;55.776;37.544;2022-09-29T05:24:58;6.07;;;2.85;;
74503;SDS011;62988;55.776;37.544;2022-09-29T05:27:24;8.10;;;3.15;;
74503;SDS011;62988;55.776;37.544;2022-09-29T05:29:49;8.35;;;3.15;;
74503;SDS011;62988;55.776;37.544;2022-09-29T05:32:15;6.22;;;2.70;;
74503;SDS011;62988;55.776;37.544;2022-09-29T05:34:41;6.55;;;2.97;;
74503;SDS011;62988;55.776;37.544;2022-09-29T05:37:06;5.13;;;3.03;;
74503;SDS011;62988;55.776;37.544;2022-09-29T05:39:32;7.45;;;3.22;;
74503;SDS011;62988;55.776;37.544;2022-09-29T05:41:59;5.65;;;3.10;;
74503;SDS011;62988;55.776;37.544;2022-09-29T05:44:26;6.18;;;3.13;;
74503;SDS011;62988;55.776;37.544;2022-09-29T05:46:52;5.93;;;3.17;;
74503;SDS011;62988;55.776;37.544;2022-09-29T05:49:18;5.20;;;3.15;;
74503;SDS011;62988;55.776;37.544;2022-09-29T05:51:43;6.43;;;3.42;;
74503;SDS011;62988;55.776;37.544;2022-09-29T05:54:09;11.15;;;3.58;;
74503;SDS011;62988;55.776;37.544;2022-09-29T05:56:35;10.25;;;3.63;;
74503;SDS011;62988;55.776;37.544;2022-09-29T05:59:01;7.18;;;3.75;;
74503;SDS011;62988;55.776;37.544;2022-09-29T06:01:26;9.95;;;4.10;;
74503;SDS011;62988;55.776;37.544;2022-09-29T06:03:52;6.50;;;4.25;;
74503;SDS011;62988;55.776;37.544;2022-09-29T06:06:20;7.32;;;4.40;;
74503;SDS011;62988;55.776;37.544;2022-09-29T06:08:47;8.32;;;4.15;;
74503;SDS011;62988;55.776;37.544;2022-09-29T06:11:14;9.30;;;4.15;;
74503;SDS011;62988;55.776;37.544;2022-09-29T06:13:45;7.30;;;3.80;;
74503;SDS011;62988;55.776;37.544;2022-09-29T06:16:12;10.18;;;4.65;;
74503;SDS011;62988;55.776;37.544;2022-09-29T06:18:39;11.52;;;4.82;;
74503;SDS011;62988;55.776;37.544;2022-09-29T06:21:08;6.90;;;4.68;;
74503;SDS011;62988;55.776;37.544;2022-09-29T06:23:36;14.40;;;6.10;;
74503;SDS011;62988;55.776;37.544;2022-09-29T06:26:03;11.02;;;4.40;;
74503;SDS011;62988;55.776;37.544;2022-09-29T06:28:31;12.20;;;4.93;;
74503;SDS011;62988;55.776;37.544;2022-09-29T06:30:58;11.38;;;5.10;;
74503;SDS011;62988;55.776;37.544;2022-09-29T06:33:25;12.10;;;6.05;;
74503;SDS011;62988;55.776;37.544;2022-09-29T06:35:51;13.27;;;6.68;;
74503;SDS011;62988;55.776;37.544;2022-09-29T06:38:36;12.00;;;6.55;;
74503;SDS011;62988;55.776;37.544;2022-09-29T06:41:02;11.55;;;6.88;;
74503;SDS011;62988;55.776;37.544;2022-09-29T06:43:27;17.73;;;7.45;;
74503;SDS011;62988;55.776;37.544;2022-09-29T06:45:53;18.70;;;7.47;;
74503;SDS011;62988;55.776;37.544;2022-09-29T06:48:18;14.77;;;7.70;;
74503;SDS011;62988;55.776;37.544;2022-09-29T06:50:44;15.00;;;6.25;;
74503;SDS011;62988;55.776;37.544;2022-09-29T06:53:09;16.90;;;6.90;;
74503;SDS011;62988;55.776;37.544;2022-09-29T06:55:35;17.35;;;7.25;;
74503;SDS011;62988;55.776;37.544;2022-09-29T06:58:00;16.38;;;7.65;;
74503;SDS011;62988;55.776;37.544;2022-09-29T07:00:26;17.35;;;7.38;;
74503;SDS011;62988;55.776;37.544;2022-09-29T07:02:52;16.40;;;7.53;;
74503;SDS011;62988;55.776;37.544;2022-09-29T07:05:18;16.73;;;7.97;;
74503;SDS011;62988;55.776;37.544;2022-09-29T07:07:44;17.48;;;7.68;;
74503;SDS011;62988;55.776;37.544;2022-09-29T07:10:12;16.13;;;7.47;;
74503;SDS011;62988;55.776;37.544;2022-09-29T07:12:37;14.38;;;7.25;;
74503;SDS011;62988;55.776;37.544;2022-09-29T07:15:03;20.75;;;8.73;;
74503;SDS011;62988;55.776;37.544;2022-09-29T07:17:29;17.27;;;7.13;;
74503;SDS011;62988;55.776;37.544;2022-09-29T07:19:54;16.45;;;6.65;;
74503;SDS011;62988;55.776;37.544;2022-09-29T07:22:20;15.05;;;6.63;;
74503;SDS011;62988;55.776;37.544;2022-09-29T07:24:46;14.43;;;6.60;;
74503;SDS011;62988;55.776;37.544;2022-09-29T07:27:12;14.20;;;7.25;;
74503;SDS011;62988;55.776;37.544;2022-09-29T07:29:38;12.20;;;6.55;;
74503;SDS011;62988;55.776;37.544;2022-09-29T07:32:04;14.70;;;7.10;;
74503;SDS011;62988;55.776;37.544;2022-09-29T07:34:29;15.35;;;6.90;;
74503;SDS011;62988;55.776;37.544;2022-09-29T07:36:55;14.80;;;7.22;;
74503;SDS011;62988;55.776;37.544;2022-09-29T07:39:20;14.00;;;6.75;;
74503;SDS011;62988;55.776;37.544;2022-09-29T07:41:47;12.55;;;6.90;;
74503;SDS011;62988;55.776;37.544;2022-09-29T07:44:12;11.70;;;6.40;;
74503;SDS011;62988;55.776;37.544;2022-09-29T07:46:38;11.13;;;6.82;;
74503;SDS011;62988;55.776;37.544;2022-09-29T07:49:04;15.75;;;8.50;;
74503;SDS011;62988;55.776;37.544;2022-09-29T07:51:29;15.65;;;7.95;;
74503;SDS011;62988;55.776;37.544;2022-09-29T07:53:59;16.15;;;6.70;;
74503;SDS011;62988;55.776;37.544;2022-09-29T07:56:37;15.05;;;7.68;;
74503;SDS011;62988;55.776;37.544;2022-09-29T07:59:03;13.27;;;7.85;;
74503;SDS011;62988;55.776;37.544;2022-09-29T08:01:29;12.48;;;6.88;;
74503;SDS011;62988;55.776;37.544;2022-09-29T08:03:56;12.90;;;6.82;;
74503;SDS011;62988;55.776;37.544;2022-09-29T08:06:22;12.93;;;7.50;;
74503;SDS011;62988;55.776;37.544;2022-09-29T08:08:49;15.30;;;7.75;;
74503;SDS011;62988;55.776;37.544;2022-09-29T08:11:15;11.55;;;6.70;;
74503;SDS011;62988;55.776;37.544;2022-09-29T08:13:44;12.20;;;6.78;;
74503;SDS011;62988;55.776;37.544;2022-09-29T08:16:10;12.25;;;6.72;;
74503;SDS011;62988;55.776;37.544;2022-09-29T08:18:38;13.15;;;6.47;;
74503;SDS011;62988;55.776;37.544;2022-09-29T08:21:04;16.88;;;8.07;;
74503;SDS011;62988;55.776;37.544;2022-09-29T08:23:37;15.38;;;7.38;;
74503;SDS011;62988;55.776;37.544;2022-09-29T08:26:05;15.25;;;7.78;;
74503;SDS011;62988;55.776;37.544;2022-09-29T08:28:36;16.25;;;6.97;;
74503;SDS011;62988;55.776;37.544;2022-09-29T08:31:03;17.13;;;7.15;;
74503;SDS011;62988;55.776;37.544;2022-09-29T08:33:34;12.32;;;6.85;;
74503;SDS011;62988;55.776;37.544;2022-09-29T08:36:00;14.60;;;7.00;;
74503;SDS011;62988;55.776;37.544;2022-09-29T08:38:29;12.30;;;6.13;;
74503;SDS011;62988;55.776;37.544;2022-09-29T08:40:55;14.43;;;7.60;;
74503;SDS011;62988;55.776;37.544;2022-09-29T08:48:48;15.45;;;7.57;;
74503;SDS011;62988;55.776;37.544;2022-09-29T08:53:49;13.50;;;7.00;;
74503;SDS011;62988;55.776;37.544;2022-09-29T08:56:21;13.50;;;6.97;;
74503;SDS011;62988;55.776;37.544;2022-09-29T08:58:47;15.70;;;7.03;;
74503;SDS011;62988;55.776;37.544;2022-09-29T09:07:29;14.30;;;6.57;;
74503;SDS011;62988;55.776;37.544;2022-09-29T09:10:29;17.42;;;7.07;;
74503;SDS011;62988;55.776;37.544;2022-09-29T09:13:32;16.52;;;7.25;;
74503;SDS011;62988;55.776;37.544;2022-09-29T09:16:26;20.23;;;7.30;;
74503;SDS011;62988;55.776;37.544;2022-09-29T09:19:51;16.95;;;7.65;;
74503;SDS011;62988;55.776;37.544;2022-09-29T09:22:20;13.73;;;7.30;;
74503;SDS011;62988;55.776;37.544;2022-09-29T09:24:48;14.10;;;6.65;;
74503;SDS011;62988;55.776;37.544;2022-09-29T09:27:23;14.63;;;8.52;;
74503;SDS011;62988;55.776;37.544;2022-09-29T09:29:54;14.88;;;7.65;;
74503;SDS011;62988;55.776;37.544;2022-09-29T09:32:30;17.05;;;7.47;;
74503;SDS011;62988;55.776;37.544;2022-09-29T09:37:46;13.82;;;6.70;;
74503;SDS011;62988;55.776;37.544;2022-09-29T09:40:14;12.43;;;7.30;;
74503;SDS011;62988;55.776;37.544;2022-09-29T09:42:43;14.95;;;8.00;;
74503;SDS011;62988;55.776;37.544;2022-09-29T09:48:09;9.60;;;5.50;;
74503;SDS011;62988;55.776;37.544;2022-09-29T09:50:43;15.75;;;6.53;;
74503;SDS011;62988;55.776;37.544;2022-09-29T09:53:10;11.40;;;6.40;;
74503;SDS011;62988;55.776;37.544;2022-09-29T09:55:40;12.82;;;6.25;;
74503;SDS011;62988;55.776;37.544;2022-09-29T09:58:12;14.95;;;5.85;;
74503;SDS011;62988;55.776;37.544;2022-09-29T10:01:00;13.23;;;6.32;;
74503;SDS011;62988;55.776;37.544;2022-09-29T10:03:36;11.52;;;5.32;;
74503;SDS011;62988;55.776;37.544;2022-09-29T10:06:03;10.40;;;5.68;;
74503;SDS011;62988;55.776;37.544;2022-09-29T10:08:33;12.55;;;6.00;;
74503;SDS011;62988;55.776;37.544;2022-09-29T10:11:15;13.23;;;6.05;;
74503;SDS011;62988;55.776;37.544;2022-09-29T10:14:35;10.50;;;6.18;;
74503;SDS011;62988;55.776;37.544;2022-09-29T10:22:28;15.30;;;5.95;;
74503;SDS011;62988;55.776;37.544;2022-09-29T10:27:35;10.63;;;5.78;;
74503;SDS011;62988;55.776;37.544;2022-09-29T10:30:14;13.27;;;6.78;;
74503;SDS011;62988;55.776;37.544;2022-09-29T10:32:43;10.30;;;5.72;;
74503;SDS011;62988;55.776;37.544;2022-09-29T10:37:47;12.60;;;6.03;;
74503;SDS011;62988;55.776;37.544;2022-09-29T10:40:29;10.63;;;6.20;;
74503;SDS011;62988;55.776;37.544;2022-09-29T10:42:55;17.75;;;6.40;;
74503;SDS011;62988;55.776;37.544;2022-09-29T10:45:25;11.55;;;5.68;;
74503;SDS011;62988;55.776;37.544;2022-09-29T10:52:57;10.02;;;5.60;;
74503;SDS011;62988;55.776;37.544;2022-09-29T10:55:27;10.63;;;6.07;;
74503;SDS011;62988;55.776;37.544;2022-09-29T10:58:03;11.23;;;6.40;;
74503;SDS011;62988;55.776;37.544;2022-09-29T11:00:44;12.32;;;6.22;;
74503;SDS011;62988;55.776;37.544;2022-09-29T11:03:18;13.60;;;6.32;;
74503;SDS011;62988;55.776;37.544;2022-09-29T11:05:53;12.07;;;5.13;;
74503;SDS011;62988;55.776;37.544;2022-09-29T11:10:55;11.27;;;5.85;;
74503;SDS011;62988;55.776;37.544;2022-09-29T11:13:37;9.82;;;5.28;;
74503;SDS011;62988;55.776;37.544;2022-09-29T11:16:11;14.55;;;6.13;;
74503;SDS011;62988;55.776;37.544;2022-09-29T11:18:39;12.52;;;5.97;;
74503;SDS011;62988;55.776;37.544;2022-09-29T11:23:47;13.15;;;5.97;;
74503;SDS011;62988;55.776;37.544;2022-09-29T11:26:29;9.85;;;5.90;;
74503;SDS011;62988;55.776;37.544;2022-09-29T11:40:57;11.15;;;5.70;;
74503;SDS011;62988;55.776;37.544;2022-09-29T11:48:50;11.57;;;5.63;;
74503;SDS011;62988;55.776;37.544;2022-09-29T11:51:34;12.50;;;5.80;;
74503;SDS011;62988;55.776;37.544;2022-09-29T11:54:28;8.90;;;5.35;;
74503;SDS011;62988;55.776;37.544;2022-09-29T12:02:07;12.20;;;5.57;;
74503;SDS011;62988;55.776;37.544;2022-09-29T12:10:48;11.80;;;5.72;;
74503;SDS011;62988;55.776;37.544;2022-09-29T12:13:29;9.60;;;5.25;;
74503;SDS011;62988;55.776;37.544;2022-09-29T12:16:24;14.85;;;6.07;;
74503;SDS011;62988;55.776;37.544;2022-09-29T12:18:56;14.10;;;6.10;;
74503;SDS011;62988;55.776;37.544;2022-09-29T12:21:31;13.85;;;6.15;;
74503;SDS011;62988;55.776;37.544;2022-09-29T12:24:00;15.02;;;5.65;;
74503;SDS011;62988;55.776;37.544;2022-09-29T12:26:29;9.98;;;5.35;;
74503;SDS011;62988;55.776;37.544;2022-09-29T12:28:58;11.02;;;5.40;;
74503;SDS011;62988;55.776;37.544;2022-09-29T12:31:52;12.02;;;6.07;;
74503;SDS011;62988;55.776;37.544;2022-09-29T12:40:02;13.07;;;6.13;;
74503;SDS011;62988;55.776;37.544;2022-09-29T12:42:55;12.63;;;6.03;;
74503;SDS011;62988;55.776;37.544;2022-09-29T12:48:34;11.90;;;6.20;;
74503;SDS011;62988;55.776;37.544;2022-09-29T12:56:56;12.68;;;6.10;;
74503;SDS011;62988;55.776;37.544;2022-09-29T13:02:04;9.70;;;5.55;;
74503;SDS011;62988;55.776;37.544;2022-09-29T13:18:27;10.32;;;6.10;;
74503;SDS011;62988;55.776;37.544;2022-09-29T13:23:44;17.25;;;6.18;;
74503;SDS011;62988;55.776;37.544;2022-09-29T13:26:16;12.55;;;6.45;;
74503;SDS011;62988;55.776;37.544;2022-09-29T13:28:45;11.55;;;6.18;;
74503;SDS011;62988;55.776;37.544;2022-09-29T13:31:27;14.57;;;6.32;;
74503;SDS011;62988;55.776;37.544;2022-09-29T13:33:57;17.38;;;7.00;;
74503;SDS011;62988;55.776;37.544;2022-09-29T13:36:31;9.57;;;5.50;;
74503;SDS011;62988;55.776;37.544;2022-09-29T13:39:03;16.83;;;6.35;;
74503;SDS011;62988;55.776;37.544;2022-09-29T13:41:33;11.25;;;6.15;;
74503;SDS011;62988;55.776;37.544;2022-09-29T13:46:42;12.70;;;5.78;;
74503;SDS011;62988;55.776;37.544;2022-09-29T13:59:40;12.90;;;5.53;;
74503;SDS011;62988;55.776;37.544;2022-09-29T14:02:18;13.23;;;5.80;;
74503;SDS011;62988;55.776;37.544;2022-09-29T14:04:55;10.90;;;5.72;;
74503;SDS011;62988;55.776;37.544;2022-09-29T14:12:44;10.13;;;5.18;;
74503;SDS011;62988;55.776;37.544;2022-09-29T14:15:17;13.98;;;4.88;;
74503;SDS011;62988;55.776;37.544;2022-09-29T14:17:45;9.27;;;5.32;;
74503;SDS011;62988;55.776;37.544;2022-09-29T14:20:21;13.40;;;5.50;;
74503;SDS011;62988;55.776;37.544;2022-09-29T14:23:00;15.43;;;6.07;;
74503;SDS011;62988;55.776;37.544;2022-09-29T14:25:47;16.48;;;5.70;;
74503;SDS011;62988;55.776;37.544;2022-09-29T14:28:22;9.35;;;5.03;;
74503;SDS011;62988;55.776;37.544;2022-09-29T14:30:55;12.57;;;5.95;;
74503;SDS011;62988;55.776;37.544;2022-09-29T14:33:44;11.35;;;5.72;;
74503;SDS011;62988;55.776;37.544;2022-09-29T14:36:15;22.08;;;6.10;;
74503;SDS011;62988;55.776;37.544;2022-09-29T14:38:44;12.98;;;5.53;;
74503;SDS011;62988;55.776;37.544;2022-09-29T14:41:21;13.43;;;6.13;;
74503;SDS011;62988;55.776;37.544;2022-09-29T14:49:25;13.75;;;5.68;;
74503;SDS011;62988;55.776;37.544;2022-09-29T15:00:33;8.88;;;4.32;;
74503;SDS011;62988;55.776;37.544;2022-09-29T15:03:13;12.18;;;5.25;;
74503;SDS011;62988;55.776;37.544;2022-09-29T15:05:48;8.68;;;5.03;;
74503;SDS011;62988;55.776;37.544;2022-09-29T15:11:02;11.30;;;5.47;;
74503;SDS011;62988;55.776;37.544;2022-09-29T15:13:31;10.05;;;5.00;;
74503;SDS011;62988;55.776;37.544;2022-09-29T15:16:14;9.27;;;5.22;;
74503;SDS011;62988;55.776;37.544;2022-09-29T15:24:30;9.30;;;4.75;;
74503;SDS011;62988;55.776;37.544;2022-09-29T15:27:05;15.82;;;6.00;;
74503;SDS011;62988;55.776;37.544;2022-09-29T15:29:37;14.50;;;6.15;;
74503;SDS011;62988;55.776;37.544;2022-09-29T15:32:02;29.23;;;6.45;;
74503;SDS011;62988;55.776;37.544;2022-09-29T15:34:29;13.82;;;6.63;;
74503;SDS011;62988;55.776;37.544;2022-09-29T15:36:55;19.15;;;6.55;;
74503;SDS011;62988;55.776;37.544;2022-09-29T15:42:10;20.45;;;6.72;;
74503;SDS011;62988;55.776;37.544;2022-09-29T15:44:39;19.90;;;6.88;;
74503;SDS011;62988;55.776;37.544;2022-09-29T15:47:21;17.25;;;7.15;;
74503;SDS011;62988;55.776;37.544;2022-09-29T15:49:51;29.55;;;7.15;;
74503;SDS011;62988;55.776;37.544;2022-09-29T15:52:17;16.27;;;6.80;;
74503;SDS011;62988;55.776;37.544;2022-09-29T15:54:47;13.48;;;7.35;;
74503;SDS011;62988;55.776;37.544;2022-09-29T15:57:30;15.43;;;7.63;;
74503;SDS011;62988;55.776;37.544;2022-09-29T16:02:47;16.73;;;7.63;;
74503;SDS011;62988;55.776;37.544;2022-09-29T16:05:33;12.85;;;7.25;;
74503;SDS011;62988;55.776;37.544;2022-09-29T16:08:03;15.68;;;7.40;;
74503;SDS011;62988;55.776;37.544;2022-09-29T16:10:30;14.68;;;7.65;;
74503;SDS011;62988;55.776;37.544;2022-09-29T16:13:05;13.63;;;7.75;;
74503;SDS011;62988;55.776;37.544;2022-09-29T16:15:42;12.77;;;7.30;;
74503;SDS011;62988;55.776;37.544;2022-09-29T16:18:19;16.65;;;7.68;;
74503;SDS011;62988;55.776;37.544;2022-09-29T16:20:45;16.02;;;8.18;;
74503;SDS011;62988;55.776;37.544;2022-09-29T16:26:07;19.80;;;9.13;;
74503;SDS011;62988;55.776;37.544;2022-09-29T16:28:39;14.40;;;7.40;;
74503;SDS011;62988;55.776;37.544;2022-09-29T16:31:24;15.90;;;8.00;;
74503;SDS011;62988;55.776;37.544;2022-09-29T16:33:52;18.73;;;8.38;;
74503;SDS011;62988;55.776;37.544;2022-09-29T16:36:26;18.13;;;8.20;;
74503;SDS011;62988;55.776;37.544;2022-09-29T16:38:52;17.50;;;8.70;;
74503;SDS011;62988;55.776;37.544;2022-09-29T16:41:37;15.77;;;7.65;;
74503;SDS011;62988;55.776;37.544;2022-09-29T16:49:34;21.17;;;8.98;;
74503;SDS011;62988;55.776;37.544;2022-09-29T16:52:02;20.95;;;9.18;;
74503;SDS011;62988;55.776;37.544;2022-09-29T16:54:47;22.40;;;9.70;;
74503;SDS011;62988;55.776;37.544;2022-09-29T16:57:14;20.42;;;9.55;;
74503;SDS011;62988;55.776;37.544;2022-09-29T16:59:47;16.70;;;9.88;;
74503;SDS011;62988;55.776;37.544;2022-09-29T17:02:15;15.70;;;7.70;;
74503;SDS011;62988;55.776;37.544;2022-09-29T17:04:41;15.77;;;7.93;;
74503;SDS011;62988;55.776;37.544;2022-09-29T17:07:08;12.27;;;6.55;;
74503;SDS011;62988;55.776;37.544;2022-09-29T17:09:39;15.25;;;6.88;;
74503;SDS011;62988;55.776;37.544;2022-09-29T17:12:08;14.95;;;6.93;;
74503;SDS011;62988;55.776;37.544;2022-09-29T17:14:36;14.18;;;8.52;;
74503;SDS011;62988;55.776;37.544;2022-09-29T17:17:02;11.85;;;7.03;;
74503;SDS011;62988;55.776;37.544;2022-09-29T17:19:27;14.48;;;6.75;;
74503;SDS011;62988;55.776;37.544;2022-09-29T17:21:53;12.30;;;6.57;;
74503;SDS011;62988;55.776;37.544;2022-09-29T17:24:20;14.43;;;7.32;;
74503;SDS011;62988;55.776;37.544;2022-09-29T17:26:46;13.65;;;7.25;;
74503;SDS011;62988;55.776;37.544;2022-09-29T17:29:30;12.20;;;7.03;;
74503;SDS011;62988;55.776;37.544;2022-09-29T17:31:56;22.77;;;7.85;;
74503;SDS011;62988;55.776;37.544;2022-09-29T17:34:22;16.63;;;7.10;;
74503;SDS011;62988;55.776;37.544;2022-09-29T17:36:57;13.70;;;6.22;;
74503;SDS011;62988;55.776;37.544;2022-09-29T17:39:25;11.98;;;7.15;;
74503;SDS011;62988;55.776;37.544;2022-09-29T17:41:52;14.85;;;6.97;;
74503;SDS011;62988;55.776;37.544;2022-09-29T17:44:18;11.93;;;6.43;;
74503;SDS011;62988;55.776;37.544;2022-09-29T17:46:43;13.70;;;7.00;;
74503;SDS011;62988;55.776;37.544;2022-09-29T17:49:13;14.13;;;7.13;;
74503;SDS011;62988;55.776;37.544;2022-09-29T17:51:40;13.23;;;7.07;;
74503;SDS011;62988;55.776;37.544;2022-09-29T17:54:05;13.07;;;6.50;;
74503;SDS011;62988;55.776;37.544;2022-09-29T17:56:38;9.82;;;6.10;;
74503;SDS011;62988;55.776;37.544;2022-09-29T17:59:05;11.27;;;6.53;;
74503;SDS011;62988;55.776;37.544;2022-09-29T18:01:32;14.95;;;7.85;;